createdAt,value
2022-12-18T00:02:53.533Z,100.00
2022-12-18T00:05:56.367Z,100.00
2022-12-18T00:09:00.919Z,100.00
2022-12-18T00:15:22.089Z,100.00
2022-12-18T00:18:24.814Z,100.00
2022-12-18T00:21:31.424Z,100.00
2022-12-18T00:24:34.189Z,100.00
2022-12-18T00:27:36.865Z,100.00
2022-12-18T00:30:41.153Z,100.00
2022-12-18T00:33:45.175Z,100.00
2022-12-18T00:36:48.987Z,100.00
2022-12-18T00:39:53.096Z,100.00
2022-12-18T00:42:58.764Z,100.00
2022-12-18T00:46:04.244Z,100.00
2022-12-18T00:49:08.299Z,100.00
2022-12-18T00:52:11.090Z,100.00
2022-12-18T00:55:14.128Z,100.00
2022-12-18T00:58:17.845Z,100.00
2022-12-18T01:01:20.990Z,100.00
2022-12-18T01:04:27.132Z,100.00
2022-12-18T01:07:33.184Z,100.00
2022-12-18T01:10:35.930Z,100.00
2022-12-18T01:13:39.652Z,100.00
2022-12-18T01:16:43.084Z,100.00
2022-12-18T01:19:46.559Z,100.00
2022-12-18T01:22:49.222Z,100.00
2022-12-18T01:25:51.896Z,100.00
2022-12-18T01:28:56.659Z,100.00
2022-12-18T01:31:59.404Z,100.00
2022-12-18T01:35:02.160Z,100.00
2022-12-18T01:38:08.082Z,100.00
2022-12-18T01:41:11.712Z,100.00
2022-12-18T01:44:48.865Z,100.00
2022-12-18T01:48:01.087Z,100.00
2022-12-18T01:51:04.066Z,100.00
2022-12-18T01:54:06.685Z,100.00
2022-12-18T01:57:09.566Z,100.00
2022-12-18T02:00:16.316Z,100.00
2022-12-18T02:03:19.048Z,100.00
2022-12-18T02:06:32.108Z,100.00
2022-12-18T02:09:46.769Z,100.00
2022-12-18T02:13:14.914Z,100.00
2022-12-18T02:16:46.435Z,100.00
2022-12-18T02:20:07.940Z,100.00
2022-12-18T02:23:41.282Z,100.00
2022-12-18T02:26:53.022Z,100.00
2022-12-18T02:29:59.177Z,100.00
2022-12-18T02:33:03.914Z,100.00
2022-12-18T02:36:08.162Z,100.00
2022-12-18T02:39:12.850Z,100.00
2022-12-18T02:42:15.883Z,100.00
2022-12-18T02:45:18.760Z,100.00
2022-12-18T02:48:25.329Z,100.00
2022-12-18T02:51:39.859Z,100.00
2022-12-18T02:55:04.342Z,100.00
2022-12-18T02:58:36.230Z,100.00
2022-12-18T03:01:51.557Z,100.00
2022-12-18T03:05:17.690Z,100.00
2022-12-18T03:08:24.451Z,100.00
2022-12-18T03:11:58.984Z,100.00
2022-12-18T03:15:16.009Z,100.00
2022-12-18T03:18:30.955Z,100.00
2022-12-18T03:21:56.001Z,100.00
2022-12-18T03:24:59.702Z,100.00
2022-12-18T03:28:03.648Z,100.00
2022-12-18T03:31:09.941Z,100.00
2022-12-18T03:34:17.767Z,100.00
2022-12-18T03:37:20.617Z,100.00
2022-12-18T03:40:30.877Z,100.00
2022-12-18T03:43:43.666Z,100.00
2022-12-18T03:47:06.015Z,100.00
2022-12-18T03:50:21.473Z,100.00
2022-12-18T03:53:56.911Z,100.00
2022-12-18T03:57:15.259Z,100.00
2022-12-18T04:00:19.515Z,100.00
2022-12-18T04:03:26.238Z,100.00
2022-12-18T04:06:30.759Z,100.00
2022-12-18T04:09:34.390Z,100.00
2022-12-18T04:12:38.961Z,100.00
2022-12-18T04:15:44.765Z,100.00
2022-12-18T04:18:47.616Z,100.00
2022-12-18T04:21:50.496Z,100.00
2022-12-18T04:24:53.149Z,100.00
2022-12-18T04:27:58.883Z,100.00
2022-12-18T04:31:01.563Z,100.00
2022-12-18T04:34:07.361Z,100.00
2022-12-18T04:37:10.046Z,100.00
2022-12-18T04:40:13.551Z,100.00
2022-12-18T04:43:16.218Z,100.00
2022-12-18T04:46:18.898Z,100.00
2022-12-18T04:49:21.535Z,100.00
2022-12-18T04:52:25.022Z,100.00
2022-12-18T04:55:28.635Z,100.00
2022-12-18T04:58:31.606Z,100.00
2022-12-18T05:01:35.120Z,100.00
2022-12-18T05:04:38.000Z,100.00
2022-12-18T05:07:40.767Z,100.00
2022-12-18T05:10:44.167Z,100.00
2022-12-18T05:13:46.879Z,100.00
2022-12-18T05:16:49.560Z,100.00
2022-12-18T05:19:55.446Z,100.00
2022-12-18T05:22:58.322Z,100.00
2022-12-18T05:26:03.065Z,100.00
2022-12-18T05:29:06.286Z,100.00
2022-12-18T05:32:09.350Z,100.00
2022-12-18T05:35:12.467Z,100.00
2022-12-18T05:38:15.110Z,100.00
2022-12-18T05:41:17.785Z,100.00
2022-12-18T05:44:20.459Z,100.00
2022-12-18T05:47:23.364Z,100.00
2022-12-18T05:50:26.099Z,100.00
2022-12-18T05:53:28.862Z,100.00
2022-12-18T05:56:31.555Z,100.00
2022-12-18T05:59:34.648Z,100.00
2022-12-18T06:02:37.596Z,100.00
2022-12-18T06:05:44.757Z,100.00
2022-12-18T06:08:47.916Z,100.00
2022-12-18T06:11:53.061Z,100.00
2022-12-18T06:14:55.795Z,100.00
2022-12-18T06:17:58.625Z,100.00
2022-12-18T06:21:01.744Z,100.00
2022-12-18T06:24:05.046Z,100.00
2022-12-18T06:27:07.649Z,100.00
2022-12-18T06:30:11.639Z,100.00
2022-12-18T06:33:14.490Z,100.00
2022-12-18T06:36:17.847Z,100.00
2022-12-18T06:39:20.654Z,100.00
2022-12-18T06:42:23.638Z,100.00
2022-12-18T06:45:26.606Z,100.00
2022-12-18T06:48:30.022Z,100.00
2022-12-18T06:51:33.055Z,100.00
2022-12-18T06:54:35.776Z,100.00
2022-12-18T06:57:39.099Z,100.00
2022-12-18T07:00:45.183Z,100.00
2022-12-18T07:03:52.503Z,100.00
2022-12-18T07:06:55.541Z,100.00
2022-12-18T07:09:58.271Z,100.00
2022-12-18T07:13:02.069Z,100.00
2022-12-18T07:16:15.948Z,100.00
2022-12-18T07:19:20.053Z,100.00
2022-12-18T07:22:23.295Z,100.00
2022-12-18T07:25:27.018Z,100.00
2022-12-18T07:28:30.113Z,100.00
2022-12-18T07:31:33.003Z,100.00
2022-12-18T07:34:39.048Z,100.00
2022-12-18T07:37:41.772Z,100.00
2022-12-18T07:40:47.288Z,100.00
2022-12-18T07:43:50.202Z,100.00
2022-12-18T07:46:52.930Z,100.00
2022-12-18T07:49:55.772Z,100.00
2022-12-18T07:52:58.828Z,100.00
2022-12-18T07:56:26.607Z,100.00
2022-12-18T07:59:29.374Z,100.00
2022-12-18T08:02:33.084Z,100.00
2022-12-18T08:05:35.817Z,100.00
2022-12-18T08:08:38.751Z,100.00
2022-12-18T08:11:41.427Z,100.00
2022-12-18T08:14:44.056Z,100.00
2022-12-18T08:17:46.894Z,100.00
2022-12-18T08:20:49.716Z,100.00
2022-12-18T08:23:54.296Z,100.00
2022-12-18T08:27:21.234Z,100.00
2022-12-18T08:30:21.376Z,100.00
2022-12-18T08:33:24.888Z,100.00
2022-12-18T08:36:28.170Z,100.00
2022-12-18T08:39:31.055Z,100.00
2022-12-18T08:42:52.485Z,100.00
2022-12-18T08:45:55.317Z,100.00
2022-12-18T08:48:58.127Z,100.00
2022-12-18T08:52:01.206Z,100.00
2022-12-18T08:55:04.234Z,100.00
2022-12-18T08:58:06.924Z,100.00
2022-12-18T09:01:13.392Z,99.64
2022-12-18T09:04:16.662Z,99.44
2022-12-18T09:07:19.362Z,98.64
2022-12-18T09:10:22.575Z,96.35
2022-12-18T09:13:25.775Z,96.59
2022-12-18T09:16:32.266Z,97.12
2022-12-18T09:19:35.611Z,95.83
2022-12-18T09:22:38.304Z,95.05
2022-12-18T09:25:41.943Z,93.81
2022-12-18T09:28:45.306Z,94.04
2022-12-18T09:31:51.092Z,93.03
2022-12-18T09:34:56.803Z,91.86
2022-12-18T09:37:59.656Z,90.47
2022-12-18T09:41:23.791Z,89.69
2022-12-18T09:44:47.612Z,88.54
2022-12-18T09:47:51.897Z,87.04
2022-12-18T09:50:58.893Z,85.60
2022-12-18T09:54:09.160Z,84.80
2022-12-18T09:57:20.262Z,84.18
2022-12-18T10:00:25.203Z,85.09
2022-12-18T10:03:30.820Z,82.84
2022-12-18T10:06:38.407Z,82.16
2022-12-18T10:09:59.915Z,82.12
2022-12-18T10:13:06.244Z,80.83
2022-12-18T10:16:23.909Z,79.11
2022-12-18T10:19:52.918Z,82.99
2022-12-18T10:23:09.794Z,83.54
2022-12-18T10:26:15.891Z,81.16
2022-12-18T10:29:19.653Z,80.06
2022-12-18T10:32:31.033Z,76.10
2022-12-18T10:35:33.865Z,77.03
2022-12-18T10:38:39.533Z,76.30
2022-12-18T10:41:43.099Z,75.28
2022-12-18T10:45:07.552Z,74.42
2022-12-18T10:48:21.292Z,71.16
2022-12-18T10:51:34.666Z,72.30
2022-12-18T10:54:37.658Z,72.31
2022-12-18T10:57:42.777Z,74.16
2022-12-18T11:00:45.451Z,71.65
2022-12-18T11:04:02.609Z,73.39
2022-12-18T11:07:08.068Z,69.42
2022-12-18T11:10:20.417Z,71.02
2022-12-18T11:13:25.461Z,69.65
2022-12-18T11:16:32.040Z,66.86
2022-12-18T11:19:39.856Z,69.21
2022-12-18T11:22:42.548Z,65.26
2022-12-18T11:26:03.489Z,64.79
2022-12-18T11:29:12.218Z,65.93
2022-12-18T11:32:40.766Z,66.49
2022-12-18T11:36:03.990Z,63.40
2022-12-18T11:39:36.405Z,65.93
2022-12-18T11:42:46.189Z,62.30
2022-12-18T11:45:54.962Z,64.16
2022-12-18T11:49:29.244Z,65.26
2022-12-18T11:52:39.823Z,63.85
2022-12-18T11:55:51.939Z,61.28
2022-12-18T11:59:10.457Z,62.27
2022-12-18T12:02:19.273Z,62.23
2022-12-18T12:05:44.000Z,62.48
2022-12-18T12:09:05.453Z,64.74
2022-12-18T12:12:32.204Z,64.98
2022-12-18T12:15:48.334Z,65.19
2022-12-18T12:19:35.696Z,64.00
2022-12-18T12:22:54.812Z,63.09
2022-12-18T12:26:03.539Z,62.91
2022-12-18T12:29:20.834Z,62.38
2022-12-18T12:32:43.101Z,65.65
2022-12-18T12:36:26.545Z,65.60
2022-12-18T12:39:35.841Z,62.55
2022-12-18T12:43:09.456Z,61.63
2022-12-18T12:46:15.446Z,61.23
2022-12-18T12:49:23.621Z,62.93
2022-12-18T12:52:33.992Z,61.32
2022-12-18T12:55:40.566Z,60.25
2022-12-18T12:58:48.311Z,59.94
2022-12-18T13:02:06.708Z,58.48
2022-12-18T13:05:21.454Z,60.41
2022-12-18T13:12:23.331Z,60.53
2022-12-18T13:13:43.832Z,60.15
2022-12-18T13:15:40.001Z,60.42
2022-12-18T13:18:53.260Z,62.26
2022-12-18T13:21:57.777Z,63.11
2022-12-18T13:25:00.760Z,64.77
2022-12-18T13:28:10.461Z,65.68
2022-12-18T13:31:30.354Z,65.71
2022-12-18T13:34:33.807Z,66.14
2022-12-18T13:37:45.119Z,66.76
2022-12-18T13:40:50.727Z,67.69
2022-12-18T13:43:55.621Z,68.66
2022-12-18T13:46:58.736Z,69.73
2022-12-18T13:50:03.363Z,70.02
2022-12-18T13:53:06.630Z,70.39
2022-12-18T13:56:09.505Z,71.00
2022-12-18T13:59:16.803Z,70.94
2022-12-18T14:02:24.042Z,71.35
2022-12-18T14:05:29.700Z,71.43
2022-12-18T14:08:41.818Z,71.72
2022-12-18T14:11:49.724Z,71.61
2022-12-18T14:14:54.978Z,71.63
2022-12-18T14:18:10.318Z,72.29
2022-12-18T14:21:39.075Z,73.26
2022-12-18T14:24:42.296Z,74.21
2022-12-18T14:27:51.440Z,75.18
2022-12-18T14:30:55.974Z,77.48
2022-12-18T14:33:58.743Z,78.57
2022-12-18T14:37:01.551Z,79.56
2022-12-18T14:40:11.082Z,80.14
2022-12-18T14:43:15.154Z,80.41
2022-12-18T14:46:40.277Z,81.13
2022-12-18T14:49:44.589Z,81.55
2022-12-18T14:52:47.288Z,82.38
2022-12-18T14:55:50.364Z,83.25
2022-12-18T14:58:56.630Z,83.60
2022-12-18T15:02:05.910Z,84.07
2022-12-18T15:05:15.251Z,84.87
2022-12-18T15:08:51.345Z,85.19
2022-12-18T15:11:59.280Z,86.30
2022-12-18T15:15:02.496Z,87.07
2022-12-18T15:18:13.768Z,88.12
2022-12-18T15:21:19.933Z,87.56
2022-12-18T15:24:28.853Z,87.83
2022-12-18T15:27:35.995Z,89.52
2022-12-18T15:30:38.724Z,89.83
2022-12-18T15:34:02.196Z,88.96
2022-12-18T15:37:05.084Z,89.34
2022-12-18T15:40:09.989Z,90.51
2022-12-18T15:43:31.264Z,90.45
2022-12-18T15:46:34.243Z,92.80
2022-12-18T15:49:37.297Z,93.35
2022-12-18T15:52:44.868Z,92.51
2022-12-18T15:56:06.494Z,92.62
2022-12-18T15:59:15.014Z,92.43
2022-12-18T16:02:19.750Z,91.58
2022-12-18T16:05:24.460Z,92.63
2022-12-18T16:08:30.334Z,92.67
2022-12-18T16:11:39.619Z,94.84
2022-12-18T16:14:43.115Z,97.40
2022-12-18T16:17:49.102Z,96.23
2022-12-18T16:20:52.798Z,96.03
2022-12-18T16:23:55.919Z,96.12
2022-12-18T16:27:04.955Z,98.17
2022-12-18T16:30:10.838Z,96.55
2022-12-18T16:33:13.636Z,97.81
2022-12-18T16:36:16.662Z,97.68
2022-12-18T16:39:19.442Z,97.82
2022-12-18T16:42:22.531Z,98.19
2022-12-18T16:45:34.333Z,97.90
2022-12-18T16:48:37.213Z,97.75
2022-12-18T16:51:40.593Z,97.18
2022-12-18T16:54:43.557Z,96.46
2022-12-18T16:57:46.584Z,96.39
2022-12-18T17:00:49.728Z,96.03
2022-12-18T17:03:55.527Z,96.21
2022-12-18T17:06:59.219Z,96.45
2022-12-18T17:10:01.978Z,96.54
2022-12-18T17:13:06.060Z,96.41
2022-12-18T17:16:10.200Z,96.73
2022-12-18T17:19:17.419Z,97.09
2022-12-18T17:22:23.603Z,97.78
2022-12-18T17:25:26.655Z,98.08
2022-12-18T17:28:29.937Z,98.08
2022-12-18T17:31:36.036Z,98.38
2022-12-18T17:34:41.972Z,98.42
2022-12-18T17:37:44.673Z,98.15
2022-12-18T17:40:48.342Z,98.20
2022-12-18T17:43:55.476Z,98.33
2022-12-18T17:46:58.909Z,98.00
2022-12-18T17:50:01.782Z,98.11
2022-12-18T17:53:04.788Z,97.87
2022-12-18T17:56:09.585Z,97.41
2022-12-18T17:59:14.834Z,96.54
2022-12-18T18:02:17.986Z,97.53
2022-12-18T18:05:21.454Z,97.99
2022-12-18T18:08:24.994Z,97.64
2022-12-18T18:11:46.834Z,97.82
2022-12-18T18:14:52.942Z,98.20
2022-12-18T18:17:55.972Z,98.47
2022-12-18T18:20:58.855Z,98.55
2022-12-18T18:24:03.470Z,98.48
2022-12-18T18:27:06.289Z,98.70
2022-12-18T18:30:10.014Z,98.32
2022-12-18T18:33:13.085Z,99.30
2022-12-18T18:36:16.098Z,99.70
2022-12-18T18:39:19.460Z,99.75
2022-12-18T18:42:22.438Z,99.96
2022-12-18T18:45:25.643Z,100.00
2022-12-18T18:48:31.076Z,100.00
2022-12-18T18:51:35.724Z,100.00
2022-12-18T18:54:51.914Z,99.74
2022-12-18T18:58:01.743Z,99.40
2022-12-18T19:01:13.139Z,99.64
2022-12-18T19:04:16.339Z,99.64
2022-12-18T19:07:30.690Z,99.73
2022-12-18T19:10:43.656Z,99.98
2022-12-18T19:13:47.371Z,99.88
2022-12-18T19:16:50.410Z,99.95
2022-12-18T19:19:53.801Z,100.00
2022-12-18T19:22:56.802Z,100.00
2022-12-18T19:26:16.964Z,100.00
2022-12-18T19:29:24.249Z,100.00
2022-12-18T19:32:27.250Z,100.00
2022-12-18T19:35:30.672Z,100.00
2022-12-18T19:38:33.583Z,99.93
2022-12-18T19:41:36.659Z,99.64
2022-12-18T19:44:40.379Z,100.00
2022-12-18T19:47:43.644Z,99.78
2022-12-18T19:50:46.703Z,100.00
2022-12-18T19:53:54.988Z,100.00
2022-12-18T19:57:02.977Z,100.00
2022-12-18T20:00:06.999Z,100.00
2022-12-18T20:03:21.227Z,100.00
2022-12-18T20:06:32.983Z,100.00
2022-12-18T20:09:37.126Z,100.00
2022-12-18T20:12:39.974Z,100.00
2022-12-18T20:15:45.314Z,100.00
2022-12-18T20:18:50.318Z,100.00
2022-12-18T20:21:54.298Z,100.00
2022-12-18T20:24:57.116Z,100.00
2022-12-18T20:28:01.817Z,100.00
2022-12-18T20:31:10.533Z,100.00
2022-12-18T20:34:17.921Z,100.00
2022-12-18T20:37:24.439Z,100.00
2022-12-18T20:40:27.780Z,100.00
2022-12-18T20:43:31.475Z,100.00
2022-12-18T20:46:34.199Z,100.00
2022-12-18T20:49:37.376Z,100.00
2022-12-18T20:52:41.594Z,100.00
2022-12-18T20:55:45.062Z,100.00
2022-12-18T20:58:47.892Z,100.00
2022-12-18T21:01:54.973Z,100.00
2022-12-18T21:04:58.024Z,100.00
2022-12-18T21:08:00.816Z,100.00
2022-12-18T21:11:36.042Z,100.00
2022-12-18T21:14:39.219Z,100.00
2022-12-18T21:17:45.078Z,100.00
2022-12-18T21:20:48.201Z,100.00
2022-12-18T21:23:51.381Z,100.00
2022-12-18T21:26:54.712Z,100.00
2022-12-18T21:29:58.777Z,100.00
2022-12-18T21:33:01.644Z,100.00
2022-12-18T21:36:07.416Z,100.00
2022-12-18T21:39:10.385Z,100.00
2022-12-18T21:42:31.904Z,100.00
2022-12-18T21:45:34.771Z,100.00
2022-12-18T21:48:40.765Z,100.00
2022-12-18T21:51:44.083Z,100.00
2022-12-18T21:54:46.789Z,100.00
2022-12-18T21:57:50.452Z,100.00
2022-12-18T22:00:53.307Z,100.00
2022-12-18T22:03:55.993Z,100.00
2022-12-18T22:07:02.165Z,100.00
2022-12-18T22:10:05.080Z,100.00
2022-12-18T22:13:08.448Z,100.00
2022-12-18T22:16:11.272Z,100.00
2022-12-18T22:19:14.174Z,100.00
2022-12-18T22:22:17.739Z,100.00
2022-12-18T22:25:20.426Z,100.00
2022-12-18T22:28:41.815Z,100.00
2022-12-18T22:31:44.698Z,100.00
2022-12-18T22:34:47.535Z,100.00
2022-12-18T22:37:50.268Z,100.00
2022-12-18T22:40:53.271Z,100.00
2022-12-18T22:43:56.196Z,100.00
2022-12-18T22:47:05.629Z,100.00
2022-12-18T22:50:12.769Z,100.00
2022-12-18T22:53:15.463Z,100.00
2022-12-18T22:56:21.214Z,100.00
2022-12-18T22:59:25.134Z,100.00
2022-12-18T23:02:27.845Z,100.00
2022-12-18T23:05:31.297Z,100.00
2022-12-18T23:08:34.878Z,100.00
2022-12-18T23:11:37.591Z,100.00
2022-12-18T23:14:40.280Z,100.00
2022-12-18T23:17:43.096Z,100.00
2022-12-18T23:20:45.860Z,100.00
2022-12-18T23:23:48.852Z,100.00
2022-12-18T23:26:51.687Z,100.00
2022-12-18T23:29:54.425Z,100.00
2022-12-18T23:32:59.482Z,100.00
2022-12-18T23:36:03.405Z,100.00
2022-12-18T23:39:06.352Z,100.00
2022-12-18T23:42:09.096Z,100.00
2022-12-18T23:45:16.612Z,100.00
2022-12-18T23:48:21.467Z,100.00
2022-12-18T23:51:25.839Z,100.00
2022-12-18T23:54:33.212Z,100.00
2022-12-18T23:57:36.406Z,100.00
